Time;durP1;ratioP1;P1;durP2;ratioP2;P2;SDS_P1;SDS_P2;PMS_P1;PMS_P2;Temp;Humidity;BMP_temperature;BMP_pressure;BME280_temperature;BME280_humidity;BME280_pressure;Samples;Min_cycle;Max_cycle;Signal;HPM_P1;HPM_P2
2022/10/19 00:01:36;;;;;;;17.42;5.75;;;;;;;18.80;100.00;102734.84;4996689;28;20035;-49
2022/10/19 00:04:02;;;;;;;22.80;5.97;;;;;;;18.65;100.00;102732.28;5011281;28;20042;-51
2022/10/19 00:06:31;;;;;;;28.35;6.43;;;;;;;18.70;100.00;102738.78;4996795;28;20041;-53
2022/10/19 00:08:59;;;;;;;20.30;6.10;;;;;;;18.72;100.00;102734.00;5012709;28;20030;-53
2022/10/19 00:11:25;;;;;;;15.13;5.50;;;;;;;18.65;100.00;102732.28;5004951;28;20269;-51
2022/10/19 00:13:53;;;;;;;12.88;5.38;;;;;;;18.66;100.00;102729.38;4996625;28;20031;-53
2022/10/19 00:16:20;;;;;;;12.82;5.00;;;;;;;18.49;100.00;102732.47;5011056;28;20094;-51
2022/10/19 00:18:46;;;;;;;17.23;5.90;;;;;;;18.55;100.00;102733.50;5005416;28;20034;-57
2022/10/19 00:21:15;;;;;;;17.03;6.43;;;;;;;18.52;100.00;102727.66;5012082;28;20131;-54
2022/10/19 00:23:42;;;;;;;19.55;5.18;;;;;;;18.49;100.00;102727.03;5004958;28;20268;-51
2022/10/19 00:26:08;;;;;;;21.67;5.85;;;;;;;18.39;100.00;102723.84;5005512;28;20049;-47
2022/10/19 00:28:34;;;;;;;12.38;4.90;;;;;;;18.35;100.00;102728.00;5008382;28;20038;-51
2022/10/19 00:31:08;;;;;;;16.85;5.68;;;;;;;18.38;100.00;102729.50;5008013;28;20065;-49
2022/10/19 00:33:34;;;;;;;13.88;4.85;;;;;;;18.37;100.00;102727.81;4998376;28;20036;-51
2022/10/19 00:36:00;;;;;;;19.43;5.43;;;;;;;18.26;100.00;102732.75;5001292;28;20045;-53
2022/10/19 00:38:26;;;;;;;12.40;4.70;;;;;;;18.36;100.00;102734.28;5012592;28;20048;-52
2022/10/19 00:40:52;;;;;;;19.52;4.97;;;;;;;18.32;100.00;102739.25;5003179;28;20058;-53
2022/10/19 00:43:21;;;;;;;17.47;4.40;;;;;;;18.36;100.00;102740.50;4993590;28;20073;-51
2022/10/19 00:45:47;;;;;;;10.15;4.20;;;;;;;18.26;100.00;102737.34;4995020;28;20049;-48
2022/10/19 00:48:17;;;;;;;14.38;4.80;;;;;;;18.22;100.00;102731.50;4991187;28;20035;-51
2022/10/19 00:50:44;;;;;;;15.60;5.22;;;;;;;18.05;100.00;102734.53;4991539;28;20050;-52
2022/10/19 00:53:11;;;;;;;14.75;5.07;;;;;;;17.93;100.00;102736.09;4997606;28;20080;-52
2022/10/19 00:55:38;;;;;;;15.13;5.00;;;;;;;18.08;100.00;102735.16;4997949;28;20051;-48
2022/10/19 00:58:04;;;;;;;15.57;4.32;;;;;;;18.28;100.00;102727.16;5008472;28;20031;-47
2022/10/19 01:00:30;;;;;;;14.30;5.10;;;;;;;18.22;100.00;102727.94;5009732;28;20030;-49
2022/10/19 01:02:57;;;;;;;10.88;3.80;;;;;;;18.20;100.00;102725.44;5014673;28;20058;-50
2022/10/19 01:05:24;;;;;;;15.25;4.30;;;;;;;18.18;100.00;102730.22;5003169;28;20102;-51
2022/10/19 01:07:50;;;;;;;28.75;4.45;;;;;;;18.18;100.00;102727.53;5013661;28;20034;-48
2022/10/19 01:10:16;;;;;;;15.03;3.80;;;;;;;18.16;100.00;102721.47;5008625;28;20026;-52
2022/10/19 01:12:52;;;;;;;19.08;4.32;;;;;;;18.09;100.00;102718.72;4997405;28;20045;-49
2022/10/19 01:15:27;;;;;;;14.73;4.40;;;;;;;18.04;100.00;102708.47;5003772;28;20039;-49
2022/10/19 01:18:14;;;;;;;13.55;4.32;;;;;;;17.97;100.00;102714.88;5011430;28;20035;-47
2022/10/19 01:20:46;;;;;;;10.80;4.38;;;;;;;17.91;100.00;102713.81;4998941;28;20105;-50
2022/10/19 01:23:31;;;;;;;17.50;4.47;;;;;;;17.92;100.00;102710.88;4997407;28;20064;-54
2022/10/19 01:26:21;;;;;;;14.52;3.53;;;;;;;17.69;100.00;102704.91;5001729;28;20031;-49
2022/10/19 01:29:17;;;;;;;10.75;3.63;;;;;;;17.65;100.00;102700.94;5007300;28;20035;-51
2022/10/19 01:32:05;;;;;;;16.27;4.22;;;;;;;17.56;100.00;102701.09;4999234;28;20068;-51
2022/10/19 01:34:39;;;;;;;25.73;8.20;;;;;;;17.61;100.00;102701.34;4998441;28;20034;-52
2022/10/19 01:37:20;;;;;;;8.20;3.25;;;;;;;17.59;100.00;102702.56;4999142;28;20037;-51
2022/10/19 01:40:00;;;;;;;12.43;3.92;;;;;;;17.55;100.00;102702.13;5001578;28;20030;-49
2022/10/19 01:42:53;;;;;;;13.77;4.00;;;;;;;17.53;100.00;102703.34;4996592;28;20042;-50
2022/10/19 01:45:59;;;;;;;12.77;4.15;;;;;;;17.44;100.00;102703.50;5005142;28;20043;-47
2022/10/19 01:48:33;;;;;;;15.55;3.90;;;;;;;17.52;100.00;102691.69;4953804;28;20044;-55
2022/10/19 01:51:04;;;;;;;14.65;4.20;;;;;;;17.40;100.00;102693.25;4994496;28;20108;-50
2022/10/19 01:53:36;;;;;;;9.02;4.05;;;;;;;17.36;100.00;102692.00;4998007;28;20039;-50
2022/10/19 01:56:03;;;;;;;14.73;3.58;;;;;;;17.53;100.00;102695.22;5005381;28;20060;-47
2022/10/19 01:58:34;;;;;;;7.07;3.53;;;;;;;17.38;100.00;102688.03;4999481;28;20046;-49
2022/10/19 02:01:05;;;;;;;10.45;3.40;;;;;;;17.25;100.00;102687.94;5002844;28;20042;-47
2022/10/19 02:03:33;;;;;;;9.98;4.07;;;;;;;17.38;100.00;102692.63;5001970;28;20049;-47
2022/10/19 02:06:03;;;;;;;15.70;3.95;;;;;;;17.62;100.00;102692.19;5006761;28;20029;-49
2022/10/19 02:08:35;;;;;;;17.13;4.72;;;;;;;17.52;100.00;102699.78;5005266;28;20042;-51
2022/10/19 02:11:02;;;;;;;12.38;4.45;;;;;;;17.46;100.00;102685.22;5003189;28;20102;-48
2022/10/19 02:13:29;;;;;;;10.90;4.85;;;;;;;17.59;100.00;102695.28;4998002;28;20038;-52
2022/10/19 02:15:59;;;;;;;15.73;4.55;;;;;;;17.49;100.00;102689.38;5000720;28;20031;-50
2022/10/19 02:18:32;;;;;;;20.13;4.47;;;;;;;17.57;100.00;102696.50;4992610;28;20031;-54
2022/10/19 02:21:00;;;;;;;12.98;4.10;;;;;;;17.46;100.00;102692.47;5008837;28;20104;-50
2022/10/19 02:23:27;;;;;;;16.30;4.20;;;;;;;17.36;100.00;102689.28;5006720;28;20105;-49
2022/10/19 02:25:54;;;;;;;16.98;4.90;;;;;;;17.33;100.00;102691.34;5005996;28;20031;-51
2022/10/19 02:28:21;;;;;;;11.10;3.90;;;;;;;17.42;100.00;102683.94;5011650;28;20037;-54
2022/10/19 02:30:47;;;;;;;13.05;3.85;;;;;;;17.48;100.00;102682.28;5000413;28;20068;-52
2022/10/19 02:33:14;;;;;;;11.65;4.28;;;;;;;17.39;100.00;102681.59;5005717;28;20260;-49
2022/10/19 02:35:40;;;;;;;14.65;3.83;;;;;;;17.46;100.00;102684.34;5011591;28;20035;-50
2022/10/19 02:38:09;;;;;;;8.73;3.60;;;;;;;17.30;100.00;102683.63;4997632;28;20049;-47
2022/10/19 02:40:41;;;;;;;12.77;3.75;;;;;;;17.31;100.00;102676.34;5004657;28;20371;-51
2022/10/19 02:43:12;;;;;;;9.23;4.32;;;;;;;17.32;100.00;102669.91;5004656;28;20034;-49
2022/10/19 02:45:47;;;;;;;12.38;4.53;;;;;;;17.24;100.00;102670.06;5007977;28;20060;-50
2022/10/19 02:48:18;;;;;;;11.75;4.75;;;;;;;17.23;100.00;102666.50;5001343;28;20060;-48
2022/10/19 02:50:46;;;;;;;11.40;3.60;;;;;;;17.19;100.00;102659.81;5006209;28;20043;-50
2022/10/19 02:53:13;;;;;;;9.40;4.13;;;;;;;17.38;100.00;102655.59;4996477;28;20061;-52
2022/10/19 02:55:39;;;;;;;11.05;3.90;;;;;;;17.35;100.00;102650.56;5009273;28;20055;-50
2022/10/19 02:58:04;;;;;;;15.93;4.95;;;;;;;17.06;100.00;102653.25;5000767;28;20114;-48
2022/10/19 03:00:30;;;;;;;10.27;4.53;;;;;;;16.94;100.00;102654.78;5011118;28;20045;-50
2022/10/19 03:02:55;;;;;;;14.67;5.23;;;;;;;17.05;100.00;102657.00;5008940;28;20287;-50
2022/10/19 03:05:21;;;;;;;16.27;5.30;;;;;;;16.92;100.00;102659.56;5001922;28;20122;-50
2022/10/19 03:07:46;;;;;;;9.47;4.97;;;;;;;16.82;100.00;102659.03;5003104;28;20054;-51
2022/10/19 03:10:12;;;;;;;11.10;4.50;;;;;;;17.05;100.00;102658.88;5003606;28;20268;-48
2022/10/19 03:12:37;;;;;;;11.20;4.17;;;;;;;16.92;100.00;102656.84;5013061;28;20032;-48
2022/10/19 03:15:04;;;;;;;8.73;4.67;;;;;;;17.11;100.00;102659.97;5008818;28;20456;-52
2022/10/19 03:17:29;;;;;;;13.98;4.65;;;;;;;17.00;100.00;102654.03;5007190;28;20046;-48
2022/10/19 03:19:54;;;;;;;14.40;4.37;;;;;;;16.83;100.00;102653.44;4999200;28;20043;-52
2022/10/19 03:22:20;;;;;;;13.70;4.17;;;;;;;16.78;100.00;102654.00;4993787;28;20055;-49
2022/10/19 03:24:46;;;;;;;15.15;4.50;;;;;;;16.80;100.00;102651.13;5001739;28;20026;-49
2022/10/19 03:27:11;;;;;;;10.13;4.30;;;;;;;16.71;100.00;102645.00;5006418;28;20099;-48
2022/10/19 03:29:37;;;;;;;13.07;4.95;;;;;;;17.00;100.00;102654.03;5008924;28;20042;-47
2022/10/19 03:32:02;;;;;;;11.40;4.77;;;;;;;16.93;100.00;102653.13;5002936;28;20080;-48
2022/10/19 03:34:28;;;;;;;8.90;4.47;;;;;;;16.76;100.00;102645.25;4997536;28;20031;-52
2022/10/19 03:36:55;;;;;;;10.23;4.40;;;;;;;16.71;100.00;102650.41;5013612;28;20042;-51
2022/10/19 03:39:21;;;;;;;13.03;4.40;;;;;;;16.75;100.00;102643.59;5002496;28;20026;-51
2022/10/19 03:41:46;;;;;;;12.23;4.57;;;;;;;16.60;100.00;102642.81;5000237;28;20332;-52
2022/10/19 03:44:12;;;;;;;16.15;5.03;;;;;;;16.63;100.00;102648.66;5013324;28;20045;-49
2022/10/19 03:46:38;;;;;;;14.10;4.67;;;;;;;16.54;100.00;102643.59;5006650;28;20035;-52
2022/10/19 03:49:04;;;;;;;12.30;4.70;;;;;;;16.68;100.00;102639.16;5009987;28;20038;-46
2022/10/19 03:51:31;;;;;;;15.80;5.37;;;;;;;16.66;100.00;102633.09;5003936;28;20104;-49
2022/10/19 03:54:00;;;;;;;17.63;5.72;;;;;;;16.55;100.00;102629.91;5011055;28;20037;-48
2022/10/19 03:56:27;;;;;;;17.23;6.53;;;;;;;16.62;100.00;102635.38;5010876;28;20042;-50
2022/10/19 03:58:54;;;;;;;17.40;6.22;;;;;;;16.41;100.00;102637.03;4996577;28;20095;-53
2022/10/19 04:01:29;;;;;;;17.08;5.75;;;;;;;16.31;100.00;102641.88;4997993;28;20039;-52
2022/10/19 04:03:56;;;;;;;15.23;5.68;;;;;;;16.37;100.00;102642.97;5011112;28;20039;-52
2022/10/19 04:06:25;;;;;;;13.35;5.38;;;;;;;16.41;100.00;102641.56;5003425;28;20039;-49
2022/10/19 04:08:51;;;;;;;13.13;5.95;;;;;;;16.44;100.00;102639.34;5015225;28;20038;-50
2022/10/19 04:11:19;;;;;;;;;;;;;;;16.48;100.00;102650.56;5014806;28;20053;-51
2022/10/19 04:13:47;;;;;;;13.75;6.47;;;;;;;16.57;100.00;102654.00;5004494;28;19910;-50
2022/10/19 04:16:13;;;;;;;16.00;5.93;;;;;;;16.43;100.00;102645.75;5004848;28;20125;-47
2022/10/19 04:18:38;;;;;;;20.80;5.80;;;;;;;16.41;100.00;102649.66;5005437;28;20038;-50
2022/10/19 04:21:05;;;;;;;10.33;5.33;;;;;;;16.28;100.00;102644.97;4998821;28;20043;-52
2022/10/19 04:23:33;;;;;;;44.17;19.92;;;;;;;16.37;100.00;102649.22;5004021;28;20046;-51
2022/10/19 04:26:00;;;;;;;37.30;15.45;;;;;;;16.57;100.00;102649.44;5003851;28;20084;-49
2022/10/19 04:28:26;;;;;;;36.70;16.65;;;;;;;16.58;100.00;102647.56;4992093;28;20038;-50
2022/10/19 04:30:52;;;;;;;40.70;17.98;;;;;;;16.61;100.00;102655.31;4999289;28;20042;-51
2022/10/19 04:33:17;;;;;;;47.77;20.57;;;;;;;16.57;100.00;102651.28;5005659;28;20041;-53
2022/10/19 04:35:43;;;;;;;17.13;6.73;;;;;;;16.62;100.00;102654.28;4996366;28;20269;-53
2022/10/19 04:38:08;;;;;;;28.03;12.10;;;;;;;16.60;100.00;102659.88;5013482;28;20071;-50
2022/10/19 04:40:37;;;;;;;71.90;31.93;;;;;;;16.51;100.00;102660.16;5013147;28;20074;-51
2022/10/19 04:43:04;;;;;;;17.52;8.75;;;;;;;16.49;100.00;102652.25;5002669;28;20269;-51
2022/10/19 04:45:31;;;;;;;13.77;6.40;;;;;;;16.37;100.00;102653.78;5013625;28;20052;-51
2022/10/19 04:47:56;;;;;;;13.88;5.68;;;;;;;16.21;100.00;102652.97;5007443;28;20057;-52
2022/10/19 04:50:23;;;;;;;15.50;5.63;;;;;;;16.38;100.00;102650.06;5010742;28;20042;-53
2022/10/19 04:52:54;;;;;;;15.38;5.82;;;;;;;16.14;100.00;102647.47;5007261;28;20035;-55
2022/10/19 04:55:19;;;;;;;24.10;6.30;;;;;;;16.12;100.00;102646.00;5008675;28;20037;-51
2022/10/19 04:57:45;;;;;;;75.10;28.88;;;;;;;16.19;100.00;102636.97;5003905;28;20046;-54
2022/10/19 05:00:11;;;;;;;57.57;23.40;;;;;;;16.31;100.00;102644.56;5005756;28;20120;-52
2022/10/19 05:02:36;;;;;;;66.43;25.48;;;;;;;16.32;100.00;102639.00;5009279;28;20030;-47
2022/10/19 05:05:01;;;;;;;31.97;12.97;;;;;;;16.35;100.00;102645.84;5010472;28;20051;-48
2022/10/19 05:07:27;;;;;;;15.80;5.73;;;;;;;16.42;100.00;102652.19;5014488;28;20035;-50
2022/10/19 05:09:52;;;;;;;14.43;6.97;;;;;;;16.33;100.00;102645.22;5002849;28;20038;-50
2022/10/19 05:12:18;;;;;;;21.27;7.20;;;;;;;16.10;100.00;102651.59;5010217;28;20353;-51
2022/10/19 05:14:43;;;;;;;15.07;5.77;;;;;;;16.19;100.00;102646.94;5010991;28;20044;-48
2022/10/19 05:17:08;;;;;;;22.13;7.33;;;;;;;16.19;100.00;102642.38;5002533;28;20043;-47
2022/10/19 05:19:34;;;;;;;18.63;5.77;;;;;;;16.17;100.00;102647.13;5021005;28;20116;-51
2022/10/19 05:21:59;;;;;;;11.87;4.77;;;;;;;16.23;100.00;102642.81;5006271;28;20065;-49
2022/10/19 05:24:24;;;;;;;12.53;5.90;;;;;;;16.13;100.00;102643.09;5011285;28;20057;-51
2022/10/19 05:26:50;;;;;;;13.87;6.23;;;;;;;16.12;100.00;102641.44;5006945;28;20113;-53
2022/10/19 05:29:15;;;;;;;15.60;6.07;;;;;;;16.14;100.00;102639.38;5007739;28;20034;-51
2022/10/19 05:31:41;;;;;;;14.13;5.70;;;;;;;16.10;100.00;102632.69;5010800;28;20114;-55
2022/10/19 05:34:07;;;;;;;11.70;5.53;;;;;;;16.20;100.00;102635.09;5005933;28;20039;-48
2022/10/19 05:36:35;;;;;;;14.03;5.37;;;;;;;16.14;100.00;102634.00;5008244;28;20043;-50
2022/10/19 05:39:07;;;;;;;17.85;6.30;;;;;;;16.10;100.00;102632.69;5006732;28;20055;-50
2022/10/19 05:41:33;;;;;;;15.57;5.85;;;;;;;15.91;100.00;102634.97;5001644;28;20038;-54
2022/10/19 05:44:00;;;;;;;11.00;5.53;;;;;;;15.86;100.00;102629.25;5004490;28;20038;-51
2022/10/19 05:46:26;;;;;;;;;;;;;;;15.68;100.00;102618.00;4994843;28;20038;-52
2022/10/19 05:48:54;;;;;;;13.48;5.57;;;;;;;15.83;100.00;102624.22;4993051;28;19940;-53
2022/10/19 05:51:21;;;;;;;15.38;5.72;;;;;;;15.81;100.00;102612.78;4992633;28;20080;-53
2022/10/19 05:53:47;;;;;;;17.02;6.15;;;;;;;15.76;100.00;102612.53;4993975;28;20054;-52
2022/10/19 05:56:16;;;;;;;19.85;5.88;;;;;;;15.93;100.00;102609.66;4997787;28;20052;-54
2022/10/19 05:58:42;;;;;;;19.83;5.95;;;;;;;15.88;100.00;102611.03;4997745;28;20034;-52
2022/10/19 06:01:08;;;;;;;;;;;;;;;15.96;100.00;102609.28;5001338;28;20027;-51
2022/10/19 06:03:34;;;;;;;16.27;6.63;;;;;;;15.90;100.00;102614.38;4987218;28;19910;-50
2022/10/19 06:06:05;;;;;;;17.98;6.57;;;;;;;15.78;100.00;102605.91;4993594;28;20095;-52
2022/10/19 06:08:31;;;;;;;16.00;6.40;;;;;;;15.93;100.00;102615.06;4996682;28;20120;-48
2022/10/19 06:11:05;;;;;;;16.15;7.20;;;;;;;15.87;100.00;102617.44;4999761;28;20022;-52
2022/10/19 06:13:31;;;;;;;15.73;6.10;;;;;;;15.89;100.00;102614.59;4999300;28;20046;-48
2022/10/19 06:15:56;;;;;;;14.57;5.67;;;;;;;15.70;100.00;102615.97;4992380;28;20026;-51
2022/10/19 06:18:24;;;;;;;21.37;7.43;;;;;;;15.72;100.00;102614.75;5000510;28;20101;-50
2022/10/19 06:20:51;;;;;;;14.45;6.35;;;;;;;15.69;100.00;102617.81;4997023;28;20101;-51
2022/10/19 06:23:17;;;;;;;13.25;6.70;;;;;;;15.63;100.00;102623.97;4994063;28;20047;-50
2022/10/19 06:25:43;;;;;;;15.93;7.72;;;;;;;15.61;100.00;102620.63;4997115;28;20042;-53
2022/10/19 06:28:09;;;;;;;21.15;7.30;;;;;;;15.77;100.00;102628.50;4996311;28;20092;-48
2022/10/19 06:30:40;;;;;;;18.80;7.18;;;;;;;15.62;100.00;102620.41;4999463;28;20035;-49
2022/10/19 06:33:06;;;;;;;13.20;6.30;;;;;;;15.66;100.00;102614.66;4996589;28;20043;-53
2022/10/19 06:35:32;;;;;;;14.63;6.75;;;;;;;15.67;100.00;102616.31;5001779;28;20069;-55
2022/10/19 06:37:58;;;;;;;14.35;7.18;;;;;;;15.67;100.00;102619.03;4996473;28;20034;-54
2022/10/19 06:40:24;;;;;;;19.70;7.72;;;;;;;15.68;100.00;102616.16;4995979;28;20090;-50
2022/10/19 06:42:50;;;;;;;23.07;7.30;;;;;;;15.61;100.00;102618.75;4998107;28;20031;-51
2022/10/19 06:45:15;;;;;;;25.60;7.07;;;;;;;15.65;100.00;102618.38;4996321;28;20077;-49
2022/10/19 06:47:41;;;;;;;16.70;6.33;;;;;;;15.71;100.00;102614.94;4995673;28;20095;-54
2022/10/19 06:50:06;;;;;;;17.70;6.10;;;;;;;15.89;100.00;102615.41;4995780;28;20281;-50
2022/10/19 06:52:36;;;;;;;18.23;6.67;;;;;;;15.92;100.00;102611.50;4994239;28;20042;-50
2022/10/19 06:55:02;;;;;;;18.13;6.28;;;;;;;16.02;100.00;102617.44;5003004;28;20035;-55
2022/10/19 06:57:28;;;;;;;14.52;5.65;;;;;;;16.14;100.00;102617.78;4992357;28;20039;-49
2022/10/19 06:59:54;;;;;;;12.77;5.30;;;;;;;16.11;100.00;102618.19;4998362;28;20042;-50
2022/10/19 07:02:19;;;;;;;22.35;5.95;;;;;;;16.25;100.00;102615.66;5004306;28;20033;-49
2022/10/19 07:04:45;;;;;;;15.73;5.57;;;;;;;16.34;100.00;102622.59;4995280;28;20035;-52
2022/10/19 07:07:10;;;;;;;12.23;5.53;;;;;;;16.19;100.00;102620.78;4986972;28;20049;-52
2022/10/19 07:09:36;;;;;;;16.90;6.83;;;;;;;16.33;100.00;102626.31;4991433;28;20035;-54
2022/10/19 07:12:02;;;;;;;15.35;5.10;;;;;;;16.32;100.00;102613.84;4988399;28;20054;-50
2022/10/19 07:14:27;;;;;;;17.73;5.95;;;;;;;16.51;100.00;102608.84;5003219;28;20042;-52
2022/10/19 07:16:54;;;;;;;11.07;4.53;;;;;;;16.58;100.00;102604.34;4991697;28;20045;-49
2022/10/19 07:19:19;;;;;;;;;;;;;;;16.65;100.00;102612.53;4991549;28;20067;-52
2022/10/19 07:21:45;;;;;;;10.80;4.60;;;;;;;16.82;100.00;102616.66;4986930;28;19921;-52
2022/10/19 07:24:11;;;;;;;14.45;5.88;;;;;;;16.82;100.00;102623.91;4993518;28;20046;-54
2022/10/19 07:26:36;;;;;;;17.30;5.83;;;;;;;16.98;100.00;102630.94;4990201;28;20040;-51
2022/10/19 07:29:03;;;;;;;17.23;6.03;;;;;;;16.91;100.00;102633.56;4985802;28;20039;-53
2022/10/19 07:31:29;;;;;;;14.70;5.70;;;;;;;17.13;100.00;102630.88;4991418;28;20047;-51
2022/10/19 07:33:56;;;;;;;14.13;5.93;;;;;;;17.19;100.00;102630.94;4986764;28;20054;-54
2022/10/19 07:36:23;;;;;;;10.85;5.55;;;;;;;17.08;100.00;102625.22;4988772;28;20034;-52
2022/10/19 07:38:48;;;;;;;14.90;5.20;;;;;;;17.13;100.00;102617.34;4990175;28;20050;-50
2022/10/19 07:41:15;;;;;;;17.23;6.67;;;;;;;17.17;100.00;102622.16;4986640;28;20030;-53
2022/10/19 07:43:43;;;;;;;11.77;5.45;;;;;;;17.37;100.00;102616.06;4992157;28;20034;-52
2022/10/19 07:46:15;;;;;;;17.73;4.78;;;;;;;17.14;100.00;102625.25;4990411;28;20035;-49
2022/10/19 07:48:42;;;;;;;23.65;6.20;;;;;;;17.25;100.00;102617.66;4990721;28;20031;-52
2022/10/19 07:51:09;;;;;;;10.15;5.38;;;;;;;17.30;100.00;102615.19;4988542;28;20079;-52
2022/10/19 07:53:35;;;;;;;19.05;6.03;;;;;;;17.41;100.00;102617.31;4991731;28;20074;-53
2022/10/19 07:56:03;;;;;;;21.92;6.40;;;;;;;17.16;100.00;102627.78;4993638;28;20132;-51
2022/10/19 07:58:28;;;;;;;20.20;6.00;;;;;;;17.43;100.00;102625.25;4998919;28;20043;-53
2022/10/19 08:01:02;;;;;;;18.77;5.73;;;;;;;17.58;100.00;102636.81;4989012;28;20026;-53
2022/10/19 08:03:28;;;;;;;9.27;4.47;;;;;;;17.81;100.00;102632.97;4988129;28;20046;-53
2022/10/19 08:05:58;;;;;;;16.30;5.03;;;;;;;17.83;100.00;102633.63;4993354;28;20069;-49
2022/10/19 08:08:24;;;;;;;15.10;5.07;;;;;;;18.15;100.00;102644.00;4996601;28;20038;-51
2022/10/19 08:10:50;;;;;;;13.67;4.83;;;;;;;18.12;100.00;102647.09;4997313;28;20265;-54
2022/10/19 08:13:15;;;;;;;14.77;5.32;;;;;;;18.46;100.00;102638.06;4999658;28;20058;-51
2022/10/19 08:15:40;;;;;;;15.00;4.80;;;;;;;18.87;100.00;102641.66;4993413;28;20038;-58
2022/10/19 08:18:06;;;;;;;20.33;5.60;;;;;;;19.32;100.00;102630.19;4990444;28;20224;-54
2022/10/19 08:20:32;;;;;;;7.57;4.22;;;;;;;19.45;100.00;102628.50;4993574;28;20031;-55
2022/10/19 08:22:57;;;;;;;9.17;4.53;;;;;;;19.86;100.00;102632.78;5006853;28;20043;-55
2022/10/19 08:25:23;;;;;;;10.40;3.95;;;;;;;20.12;100.00;102616.63;5004069;28;20046;-54
2022/10/19 08:27:48;;;;;;;16.98;4.15;;;;;;;20.21;100.00;102623.47;4996814;28;20055;-56
2022/10/19 08:30:14;;;;;;;14.77;4.93;;;;;;;20.49;100.00;102630.41;5008681;28;20031;-55
2022/10/19 08:32:39;;;;;;;9.03;3.57;;;;;;;21.16;100.00;102629.09;4995502;28;20046;-52
2022/10/19 08:35:05;;;;;;;8.80;2.90;;;;;;;21.65;96.56;102622.97;5008061;28;20062;-55
2022/10/19 08:37:30;;;;;;;21.15;3.33;;;;;;;21.92;93.94;102632.50;4996531;28;20058;-55
2022/10/19 08:39:56;;;;;;;8.67;2.83;;;;;;;22.24;90.29;102627.91;4990000;28;20034;-55
2022/10/19 08:42:40;;;;;;;7.55;3.00;;;;;;;22.70;86.99;102625.56;4990490;28;20065;-52
2022/10/19 08:45:35;;;;;;;8.67;3.77;;;;;;;23.49;83.88;102627.16;4996545;28;20039;-55
2022/10/19 08:48:23;;;;;;;9.20;3.47;;;;;;;24.10;78.19;102626.78;4997613;28;20047;-54
2022/10/19 08:50:48;;;;;;;8.48;3.30;;;;;;;24.91;72.04;102631.22;5002653;28;20055;-55
2022/10/19 08:53:18;;;;;;;8.48;3.53;;;;;;;24.98;69.75;102619.28;4995745;28;20039;-53
2022/10/19 08:56:08;;;;;;;13.13;3.57;;;;;;;25.17;67.95;102617.13;4994229;28;20030;-54
2022/10/19 08:59:02;;;;;;;7.70;3.53;;;;;;;25.84;64.50;102614.44;5003285;28;20064;-50
2022/10/19 09:01:39;;;;;;;9.33;2.97;;;;;;;25.86;63.10;102606.78;4998044;28;20045;-56
2022/10/19 09:04:23;;;;;;;8.97;2.60;;;;;;;26.05;62.66;102610.00;5003105;28;20038;-54
2022/10/19 09:06:55;;;;;;;10.47;2.80;;;;;;;26.37;61.96;102601.03;5001463;28;20038;-52
2022/10/19 09:09:22;;;;;;;8.47;2.70;;;;;;;26.45;61.83;102602.47;4999199;28;20064;-54
2022/10/19 09:11:53;;;;;;;5.53;2.70;;;;;;;26.83;59.92;102607.97;5004539;28;20099;-53
2022/10/19 09:14:29;;;;;;;10.13;2.40;;;;;;;27.26;58.49;102605.22;4992746;28;20068;-52
2022/10/19 09:17:00;;;;;;;9.03;3.20;;;;;;;27.24;57.47;102605.53;4992316;28;20032;-52
2022/10/19 09:19:29;;;;;;;8.93;2.20;;;;;;;27.19;56.72;102599.97;4990251;28;20332;-54
2022/10/19 09:22:03;;;;;;;5.90;2.20;;;;;;;27.62;56.25;102605.44;4989153;28;20043;-51
2022/10/19 09:24:43;;;;;;;8.27;2.47;;;;;;;28.05;54.61;102599.78;4994874;28;20042;-53
2022/10/19 09:27:28;;;;;;;7.70;2.07;;;;;;;27.97;52.47;102594.81;4989830;28;20090;-51
2022/10/19 09:30:02;;;;;;;5.70;2.72;;;;;;;28.30;52.08;102595.44;4992427;28;20126;-53
2022/10/19 09:32:34;;;;;;;11.13;1.80;;;;;;;27.99;52.14;102595.38;4995109;28;20042;-54
2022/10/19 09:35:02;;;;;;;5.47;2.27;;;;;;;28.30;50.32;102596.28;5009545;28;20584;-53
2022/10/19 09:37:28;;;;;;;8.23;2.03;;;;;;;28.91;49.42;102594.59;4999094;28;20102;-50
2022/10/19 09:39:55;;;;;;;10.43;1.80;;;;;;;29.08;48.71;102595.41;4995831;28;20046;-56
2022/10/19 09:42:27;;;;;;;11.20;2.20;;;;;;;29.48;48.24;102591.69;4998165;28;20068;-54
2022/10/19 09:44:53;;;;;;;7.57;1.90;;;;;;;29.58;47.26;102590.81;4998322;28;20097;-49
2022/10/19 09:47:36;;;;;;;9.60;1.90;;;;;;;29.29;48.26;102588.69;4994603;28;20030;-52
2022/10/19 09:50:19;;;;;;;9.80;1.30;;;;;;;28.87;47.88;102589.94;4996975;28;20047;-54
2022/10/19 09:52:46;;;;;;;10.73;1.43;;;;;;;29.35;46.52;102595.00;4999134;28;20050;-53
2022/10/19 09:55:12;;;;;;;9.17;1.60;;;;;;;29.43;45.27;102594.47;4999350;28;20048;-53
2022/10/19 09:57:41;;;;;;;;;;;;;;;28.91;46.39;102593.78;4988345;28;20039;-52
2022/10/19 10:00:29;;;;;;;5.33;1.60;;;;;;;29.53;44.72;102595.53;4990083;28;19922;-53
2022/10/19 10:02:55;;;;;;;5.20;1.30;;;;;;;30.00;43.16;102601.59;4986967;28;20031;-53
2022/10/19 10:05:29;;;;;;;;;;;;;;;29.99;42.83;102611.81;4988476;28;20037;-51
2022/10/19 10:07:54;;;;;;;7.97;1.80;;;;;;;29.73;43.38;102608.38;4983836;28;19918;-53
2022/10/19 10:10:22;;;;;;;;;;;;;;;29.71;44.20;102607.81;4992928;28;20064;-53
2022/10/19 10:12:47;;;;;;;;;;;;;;;29.98;44.10;102601.88;4992731;28;19997;-55
2022/10/19 10:15:22;;;;;;;15.67;2.00;;;;;;;30.68;41.36;102605.53;4984992;28;19914;-49
2022/10/19 10:17:48;;;;;;;8.83;1.40;;;;;;;29.88;44.05;102591.75;4987201;28;20039;-53
2022/10/19 10:20:29;;;;;;;11.23;1.60;;;;;;;29.10;44.11;102582.16;4985659;28;20035;-55
2022/10/19 10:22:59;;;;;;;11.27;2.10;;;;;;;29.68;44.50;102580.84;4987043;28;20039;-56
2022/10/19 10:25:35;;;;;;;5.73;1.23;;;;;;;29.87;44.06;102569.94;4986474;28;20058;-53
2022/10/19 10:28:19;;;;;;;25.23;2.00;;;;;;;30.05;42.72;102569.31;4985839;28;20035;-50
2022/10/19 10:30:46;;;;;;;7.33;1.50;;;;;;;30.25;42.75;102569.47;4995044;28;20306;-53
2022/10/19 10:33:17;;;;;;;4.27;1.27;;;;;;;30.11;42.44;102555.50;4999993;28;20043;-55
2022/10/19 10:35:52;;;;;;;4.23;1.17;;;;;;;30.04;41.74;102556.63;4990023;28;20098;-54
2022/10/19 10:38:23;;;;;;;3.50;1.07;;;;;;;30.18;41.97;102553.22;4988883;28;20054;-53
2022/10/19 10:40:59;;;;;;;5.73;1.00;;;;;;;30.18;41.55;102545.75;4998808;28;20041;-53
2022/10/19 10:43:33;;;;;;;2.90;0.90;;;;;;;30.76;39.69;102540.56;4987557;28;20035;-57
2022/10/19 10:46:13;;;;;;;4.07;1.37;;;;;;;31.20;38.92;102544.22;4990429;28;20094;-54
2022/10/19 10:48:52;;;;;;;5.50;0.90;;;;;;;31.90;39.02;102550.16;4985326;28;20030;-56
2022/10/19 10:51:22;;;;;;;3.33;1.00;;;;;;;31.98;37.18;102548.66;4986483;28;20067;-55
2022/10/19 10:53:48;;;;;;;7.38;1.00;;;;;;;31.60;37.40;102555.00;4991871;28;20026;-54
2022/10/19 10:56:27;;;;;;;;;;;;;;;31.24;39.33;102555.50;4988145;28;20033;-54
2022/10/19 10:58:59;;;;;;;5.38;1.38;;;;;;;31.93;37.61;102548.75;4986872;28;19914;-55
2022/10/19 11:01:32;;;;;;;5.68;1.40;;;;;;;32.51;36.12;102546.66;4987848;28;20039;-54
2022/10/19 11:04:04;;;;;;;2.38;1.02;;;;;;;32.42;37.31;102541.84;4985725;28;20039;-57
2022/10/19 11:06:32;;;;;;;4.90;1.60;;;;;;;32.60;36.26;102531.00;4988139;28;20031;-54
2022/10/19 11:09:24;;;;;;;10.63;1.60;;;;;;;32.82;35.08;102523.94;4987122;28;20038;-55
2022/10/19 11:11:54;;;;;;;22.98;1.73;;;;;;;32.91;35.14;102524.88;4992427;28;20153;-55
2022/10/19 11:14:35;;;;;;;3.95;1.33;;;;;;;32.35;34.93;102522.06;4985522;28;20064;-54
2022/10/19 11:17:11;;;;;;;12.50;1.33;;;;;;;32.98;34.24;102510.63;4985013;28;20055;-54
2022/10/19 11:19:43;;;;;;;8.07;1.20;;;;;;;32.74;35.61;102512.44;4988522;28;20047;-55
2022/10/19 11:22:28;;;;;;;8.35;1.75;;;;;;;33.11;34.93;102508.97;4984733;28;20042;-54
2022/10/19 11:25:15;;;;;;;6.82;1.73;;;;;;;32.38;35.92;102496.53;4989831;28;20092;-54